sensor_id;sensor_type;location;lat;lon;timestamp;P1;durP1;ratioP1;P2;durP2;ratioP2
17347;SDS011;8791;50.876;4.342;2022-12-07T00:00:53;20.57;;;11.83;;
17347;SDS011;8791;50.876;4.342;2022-12-07T00:03:20;21.97;;;11.73;;
17347;SDS011;8791;50.876;4.342;2022-12-07T00:05:48;15.90;;;11.00;;
17347;SDS011;8791;50.876;4.342;2022-12-07T00:08:15;18.60;;;11.73;;
17347;SDS011;8791;50.876;4.342;2022-12-07T00:10:42;15.37;;;10.93;;
17347;SDS011;8791;50.876;4.342;2022-12-07T00:13:09;18.07;;;11.77;;
17347;SDS011;8791;50.876;4.342;2022-12-07T00:15:36;19.40;;;12.43;;
17347;SDS011;8791;50.876;4.342;2022-12-07T00:18:03;18.37;;;11.17;;
17347;SDS011;8791;50.876;4.342;2022-12-07T00:20:30;16.10;;;11.73;;
17347;SDS011;8791;50.876;4.342;2022-12-07T00:22:59;18.97;;;12.20;;
17347;SDS011;8791;50.876;4.342;2022-12-07T00:25:26;19.67;;;11.67;;
17347;SDS011;8791;50.876;4.342;2022-12-07T00:27:53;25.43;;;12.03;;
17347;SDS011;8791;50.876;4.342;2022-12-07T00:30:21;22.00;;;12.07;;
17347;SDS011;8791;50.876;4.342;2022-12-07T00:32:48;22.13;;;12.20;;
17347;SDS011;8791;50.876;4.342;2022-12-07T00:35:15;17.30;;;11.73;;
17347;SDS011;8791;50.876;4.342;2022-12-07T00:37:42;21.50;;;11.87;;
17347;SDS011;8791;50.876;4.342;2022-12-07T00:40:11;20.63;;;12.20;;
17347;SDS011;8791;50.876;4.342;2022-12-07T00:42:38;16.50;;;11.90;;
17347;SDS011;8791;50.876;4.342;2022-12-07T00:45:05;17.27;;;11.73;;
17347;SDS011;8791;50.876;4.342;2022-12-07T00:47:33;19.93;;;11.77;;
17347;SDS011;8791;50.876;4.342;2022-12-07T00:50:00;16.73;;;11.73;;
17347;SDS011;8791;50.876;4.342;2022-12-07T00:52:30;19.23;;;12.43;;
17347;SDS011;8791;50.876;4.342;2022-12-07T00:54:57;21.67;;;13.13;;
17347;SDS011;8791;50.876;4.342;2022-12-07T00:57:25;17.70;;;11.57;;
17347;SDS011;8791;50.876;4.342;2022-12-07T00:59:52;23.27;;;12.43;;
17347;SDS011;8791;50.876;4.342;2022-12-07T01:02:20;25.93;;;12.90;;
17347;SDS011;8791;50.876;4.342;2022-12-07T01:04:47;23.20;;;12.03;;
17347;SDS011;8791;50.876;4.342;2022-12-07T01:07:14;22.13;;;12.90;;
17347;SDS011;8791;50.876;4.342;2022-12-07T01:09:41;16.83;;;12.60;;
17347;SDS011;8791;50.876;4.342;2022-12-07T01:12:08;17.47;;;12.07;;
17347;SDS011;8791;50.876;4.342;2022-12-07T01:14:36;19.67;;;12.27;;
17347;SDS011;8791;50.876;4.342;2022-12-07T01:17:03;21.00;;;12.43;;
17347;SDS011;8791;50.876;4.342;2022-12-07T01:19:29;22.67;;;12.77;;
17347;SDS011;8791;50.876;4.342;2022-12-07T01:21:56;21.97;;;11.53;;
17347;SDS011;8791;50.876;4.342;2022-12-07T01:24:23;25.23;;;12.17;;
17347;SDS011;8791;50.876;4.342;2022-12-07T01:26:50;21.30;;;12.27;;
17347;SDS011;8791;50.876;4.342;2022-12-07T01:29:16;25.30;;;12.67;;
17347;SDS011;8791;50.876;4.342;2022-12-07T01:31:45;22.17;;;13.07;;
17347;SDS011;8791;50.876;4.342;2022-12-07T01:34:15;19.37;;;12.37;;
17347;SDS011;8791;50.876;4.342;2022-12-07T01:36:42;19.73;;;12.30;;
17347;SDS011;8791;50.876;4.342;2022-12-07T01:39:09;26.70;;;13.27;;
17347;SDS011;8791;50.876;4.342;2022-12-07T01:41:37;21.73;;;13.37;;
17347;SDS011;8791;50.876;4.342;2022-12-07T01:44:18;20.23;;;12.73;;
17347;SDS011;8791;50.876;4.342;2022-12-07T01:46:49;25.70;;;12.67;;
17347;SDS011;8791;50.876;4.342;2022-12-07T01:49:21;18.07;;;12.57;;
17347;SDS011;8791;50.876;4.342;2022-12-07T01:51:54;18.50;;;13.60;;
17347;SDS011;8791;50.876;4.342;2022-12-07T01:54:26;15.07;;;12.20;;
17347;SDS011;8791;50.876;4.342;2022-12-07T01:56:53;21.07;;;13.07;;
17347;SDS011;8791;50.876;4.342;2022-12-07T01:59:23;20.17;;;12.07;;
17347;SDS011;8791;50.876;4.342;2022-12-07T02:01:53;15.50;;;11.33;;
17347;SDS011;8791;50.876;4.342;2022-12-07T02:04:22;23.50;;;12.37;;
17347;SDS011;8791;50.876;4.342;2022-12-07T02:06:49;19.63;;;12.37;;
17347;SDS011;8791;50.876;4.342;2022-12-07T02:09:17;23.07;;;12.87;;
17347;SDS011;8791;50.876;4.342;2022-12-07T02:11:44;21.23;;;12.90;;
17347;SDS011;8791;50.876;4.342;2022-12-07T02:14:11;20.57;;;11.60;;
17347;SDS011;8791;50.876;4.342;2022-12-07T02:16:40;25.23;;;12.73;;
17347;SDS011;8791;50.876;4.342;2022-12-07T02:19:33;20.13;;;13.43;;
17347;SDS011;8791;50.876;4.342;2022-12-07T02:22:35;23.27;;;13.37;;
17347;SDS011;8791;50.876;4.342;2022-12-07T02:25:29;22.03;;;13.63;;
17347;SDS011;8791;50.876;4.342;2022-12-07T02:28:09;18.17;;;11.87;;
17347;SDS011;8791;50.876;4.342;2022-12-07T02:30:46;24.00;;;13.20;;
17347;SDS011;8791;50.876;4.342;2022-12-07T02:33:16;23.70;;;13.17;;
17347;SDS011;8791;50.876;4.342;2022-12-07T02:35:51;19.67;;;13.53;;
17347;SDS011;8791;50.876;4.342;2022-12-07T02:38:23;26.67;;;12.63;;
17347;SDS011;8791;50.876;4.342;2022-12-07T02:40:55;16.90;;;11.47;;
17347;SDS011;8791;50.876;4.342;2022-12-07T02:43:33;19.50;;;11.23;;
17347;SDS011;8791;50.876;4.342;2022-12-07T02:46:06;13.27;;;10.83;;
17347;SDS011;8791;50.876;4.342;2022-12-07T02:48:37;18.20;;;11.50;;
17347;SDS011;8791;50.876;4.342;2022-12-07T02:51:05;14.47;;;10.53;;
17347;SDS011;8791;50.876;4.342;2022-12-07T02:53:33;14.37;;;10.43;;
17347;SDS011;8791;50.876;4.342;2022-12-07T02:56:03;15.00;;;10.87;;
17347;SDS011;8791;50.876;4.342;2022-12-07T02:58:38;19.80;;;10.47;;
17347;SDS011;8791;50.876;4.342;2022-12-07T03:01:16;20.07;;;10.57;;
17347;SDS011;8791;50.876;4.342;2022-12-07T03:03:54;20.67;;;10.63;;
17347;SDS011;8791;50.876;4.342;2022-12-07T03:06:29;15.57;;;9.93;;
17347;SDS011;8791;50.876;4.342;2022-12-07T03:09:04;17.43;;;10.47;;
17347;SDS011;8791;50.876;4.342;2022-12-07T03:11:38;14.13;;;9.60;;
17347;SDS011;8791;50.876;4.342;2022-12-07T03:14:13;15.50;;;10.40;;
17347;SDS011;8791;50.876;4.342;2022-12-07T03:16:45;15.23;;;10.40;;
17347;SDS011;8791;50.876;4.342;2022-12-07T03:19:18;15.23;;;10.13;;
17347;SDS011;8791;50.876;4.342;2022-12-07T03:21:49;17.53;;;9.47;;
17347;SDS011;8791;50.876;4.342;2022-12-07T03:24:22;16.53;;;9.73;;
17347;SDS011;8791;50.876;4.342;2022-12-07T03:26:54;17.93;;;9.73;;
17347;SDS011;8791;50.876;4.342;2022-12-07T03:29:36;21.40;;;10.27;;
17347;SDS011;8791;50.876;4.342;2022-12-07T03:32:08;16.13;;;9.57;;
17347;SDS011;8791;50.876;4.342;2022-12-07T03:34:41;15.73;;;10.37;;
17347;SDS011;8791;50.876;4.342;2022-12-07T03:37:18;16.80;;;10.40;;
17347;SDS011;8791;50.876;4.342;2022-12-07T03:39:54;14.53;;;10.13;;
17347;SDS011;8791;50.876;4.342;2022-12-07T03:42:28;24.87;;;11.30;;
17347;SDS011;8791;50.876;4.342;2022-12-07T03:44:55;18.50;;;10.70;;
17347;SDS011;8791;50.876;4.342;2022-12-07T03:47:26;16.60;;;10.83;;
17347;SDS011;8791;50.876;4.342;2022-12-07T03:49:59;18.10;;;11.37;;
17347;SDS011;8791;50.876;4.342;2022-12-07T03:52:32;17.43;;;11.20;;
17347;SDS011;8791;50.876;4.342;2022-12-07T03:55:06;19.07;;;12.00;;
17347;SDS011;8791;50.876;4.342;2022-12-07T03:57:37;16.57;;;11.10;;
17347;SDS011;8791;50.876;4.342;2022-12-07T04:00:06;23.10;;;11.20;;
17347;SDS011;8791;50.876;4.342;2022-12-07T04:02:37;18.33;;;11.93;;
17347;SDS011;8791;50.876;4.342;2022-12-07T04:05:07;22.70;;;11.77;;
17347;SDS011;8791;50.876;4.342;2022-12-07T04:07:37;21.43;;;12.43;;
17347;SDS011;8791;50.876;4.342;2022-12-07T04:10:04;20.17;;;11.20;;
17347;SDS011;8791;50.876;4.342;2022-12-07T04:12:32;18.20;;;12.17;;
17347;SDS011;8791;50.876;4.342;2022-12-07T04:14:58;17.93;;;10.87;;
17347;SDS011;8791;50.876;4.342;2022-12-07T04:17:25;20.67;;;11.70;;
17347;SDS011;8791;50.876;4.342;2022-12-07T04:19:53;23.80;;;11.30;;
17347;SDS011;8791;50.876;4.342;2022-12-07T04:22:20;20.73;;;11.70;;
17347;SDS011;8791;50.876;4.342;2022-12-07T04:24:47;20.77;;;11.63;;
17347;SDS011;8791;50.876;4.342;2022-12-07T04:27:14;24.60;;;12.20;;
17347;SDS011;8791;50.876;4.342;2022-12-07T04:29:41;22.67;;;11.83;;
17347;SDS011;8791;50.876;4.342;2022-12-07T04:32:08;19.87;;;12.57;;
17347;SDS011;8791;50.876;4.342;2022-12-07T04:34:35;22.70;;;11.93;;
17347;SDS011;8791;50.876;4.342;2022-12-07T04:37:03;22.67;;;11.73;;
17347;SDS011;8791;50.876;4.342;2022-12-07T04:39:30;16.57;;;12.37;;
17347;SDS011;8791;50.876;4.342;2022-12-07T04:41:59;19.57;;;12.47;;
17347;SDS011;8791;50.876;4.342;2022-12-07T04:44:27;21.00;;;12.37;;
17347;SDS011;8791;50.876;4.342;2022-12-07T04:46:54;44.20;;;20.53;;
17347;SDS011;8791;50.876;4.342;2022-12-07T04:49:22;58.07;;;26.47;;
17347;SDS011;8791;50.876;4.342;2022-12-07T04:51:49;33.53;;;16.80;;
17347;SDS011;8791;50.876;4.342;2022-12-07T04:54:18;21.57;;;13.20;;
17347;SDS011;8791;50.876;4.342;2022-12-07T04:56:44;19.23;;;12.43;;
17347;SDS011;8791;50.876;4.342;2022-12-07T04:59:11;21.20;;;11.67;;
17347;SDS011;8791;50.876;4.342;2022-12-07T05:01:39;15.43;;;11.23;;
17347;SDS011;8791;50.876;4.342;2022-12-07T05:04:06;23.57;;;11.97;;
17347;SDS011;8791;50.876;4.342;2022-12-07T05:06:33;16.63;;;11.07;;
17347;SDS011;8791;50.876;4.342;2022-12-07T05:09:00;19.97;;;12.03;;
17347;SDS011;8791;50.876;4.342;2022-12-07T05:11:29;22.10;;;12.37;;
17347;SDS011;8791;50.876;4.342;2022-12-07T05:14:05;21.77;;;12.07;;
17347;SDS011;8791;50.876;4.342;2022-12-07T05:16:34;19.73;;;12.53;;
17347;SDS011;8791;50.876;4.342;2022-12-07T05:19:01;19.03;;;10.90;;
17347;SDS011;8791;50.876;4.342;2022-12-07T05:21:28;19.20;;;11.93;;
17347;SDS011;8791;50.876;4.342;2022-12-07T05:23:55;18.93;;;11.30;;
17347;SDS011;8791;50.876;4.342;2022-12-07T05:26:22;17.20;;;11.93;;
17347;SDS011;8791;50.876;4.342;2022-12-07T05:28:51;19.47;;;13.20;;
17347;SDS011;8791;50.876;4.342;2022-12-07T05:31:18;22.77;;;14.63;;
17347;SDS011;8791;50.876;4.342;2022-12-07T05:33:45;22.03;;;15.47;;
17347;SDS011;8791;50.876;4.342;2022-12-07T05:36:12;22.80;;;13.70;;
17347;SDS011;8791;50.876;4.342;2022-12-07T05:38:39;21.10;;;12.40;;
17347;SDS011;8791;50.876;4.342;2022-12-07T05:41:07;22.17;;;13.47;;
17347;SDS011;8791;50.876;4.342;2022-12-07T05:43:56;22.90;;;12.07;;
17347;SDS011;8791;50.876;4.342;2022-12-07T05:46:22;21.10;;;12.17;;
17347;SDS011;8791;50.876;4.342;2022-12-07T05:48:49;36.77;;;22.50;;
17347;SDS011;8791;50.876;4.342;2022-12-07T05:51:16;17.97;;;11.47;;
17347;SDS011;8791;50.876;4.342;2022-12-07T05:53:43;12.93;;;9.87;;
17347;SDS011;8791;50.876;4.342;2022-12-07T05:56:10;18.33;;;9.13;;
17347;SDS011;8791;50.876;4.342;2022-12-07T05:58:37;15.73;;;9.83;;
17347;SDS011;8791;50.876;4.342;2022-12-07T06:01:23;14.50;;;9.13;;
17347;SDS011;8791;50.876;4.342;2022-12-07T06:03:49;17.50;;;8.87;;
17347;SDS011;8791;50.876;4.342;2022-12-07T06:06:16;14.20;;;8.93;;
17347;SDS011;8791;50.876;4.342;2022-12-07T06:08:43;13.80;;;8.73;;
17347;SDS011;8791;50.876;4.342;2022-12-07T06:11:10;13.13;;;8.67;;
17347;SDS011;8791;50.876;4.342;2022-12-07T06:13:54;12.53;;;8.93;;
17347;SDS011;8791;50.876;4.342;2022-12-07T06:16:23;16.47;;;8.23;;
17347;SDS011;8791;50.876;4.342;2022-12-07T06:18:49;15.40;;;9.57;;
17347;SDS011;8791;50.876;4.342;2022-12-07T06:21:16;14.50;;;9.17;;
17347;SDS011;8791;50.876;4.342;2022-12-07T06:23:43;18.53;;;11.17;;
17347;SDS011;8791;50.876;4.342;2022-12-07T06:26:10;17.17;;;9.63;;
17347;SDS011;8791;50.876;4.342;2022-12-07T06:28:36;23.13;;;10.90;;
17347;SDS011;8791;50.876;4.342;2022-12-07T06:31:03;14.90;;;9.37;;
17347;SDS011;8791;50.876;4.342;2022-12-07T06:33:32;16.50;;;10.70;;
17347;SDS011;8791;50.876;4.342;2022-12-07T06:35:58;14.37;;;9.80;;
17347;SDS011;8791;50.876;4.342;2022-12-07T06:38:25;20.07;;;9.70;;
17347;SDS011;8791;50.876;4.342;2022-12-07T06:40:52;19.83;;;9.90;;
17347;SDS011;8791;50.876;4.342;2022-12-07T06:43:19;15.73;;;11.27;;
17347;SDS011;8791;50.876;4.342;2022-12-07T06:45:45;17.73;;;10.47;;
17347;SDS011;8791;50.876;4.342;2022-12-07T06:48:12;23.77;;;11.37;;
17347;SDS011;8791;50.876;4.342;2022-12-07T06:50:40;18.27;;;11.43;;
17347;SDS011;8791;50.876;4.342;2022-12-07T06:53:10;25.50;;;10.07;;
17347;SDS011;8791;50.876;4.342;2022-12-07T06:55:36;19.30;;;10.77;;
17347;SDS011;8791;50.876;4.342;2022-12-07T06:58:03;17.10;;;10.27;;
17347;SDS011;8791;50.876;4.342;2022-12-07T07:00:30;14.70;;;10.20;;
17347;SDS011;8791;50.876;4.342;2022-12-07T07:02:57;21.53;;;10.83;;
17347;SDS011;8791;50.876;4.342;2022-12-07T07:05:23;18.87;;;12.73;;
17347;SDS011;8791;50.876;4.342;2022-12-07T07:07:52;19.53;;;13.73;;
17347;SDS011;8791;50.876;4.342;2022-12-07T07:10:19;21.23;;;12.87;;
17347;SDS011;8791;50.876;4.342;2022-12-07T07:12:46;21.43;;;12.80;;
17347;SDS011;8791;50.876;4.342;2022-12-07T07:15:12;23.47;;;12.73;;
17347;SDS011;8791;50.876;4.342;2022-12-07T07:17:39;30.67;;;13.80;;
17347;SDS011;8791;50.876;4.342;2022-12-07T07:20:06;24.90;;;13.37;;
17347;SDS011;8791;50.876;4.342;2022-12-07T07:22:34;22.87;;;12.20;;
17347;SDS011;8791;50.876;4.342;2022-12-07T07:25:02;19.83;;;12.20;;
17347;SDS011;8791;50.876;4.342;2022-12-07T07:27:29;23.97;;;12.83;;
17347;SDS011;8791;50.876;4.342;2022-12-07T07:29:56;24.63;;;14.73;;
17347;SDS011;8791;50.876;4.342;2022-12-07T07:32:23;26.03;;;13.67;;
17347;SDS011;8791;50.876;4.342;2022-12-07T07:34:50;20.53;;;12.70;;
17347;SDS011;8791;50.876;4.342;2022-12-07T07:37:17;19.60;;;13.13;;
17347;SDS011;8791;50.876;4.342;2022-12-07T07:39:44;25.77;;;13.43;;
17347;SDS011;8791;50.876;4.342;2022-12-07T07:42:12;24.33;;;11.63;;
17347;SDS011;8791;50.876;4.342;2022-12-07T07:44:39;36.83;;;12.03;;
17347;SDS011;8791;50.876;4.342;2022-12-07T07:47:06;20.43;;;12.17;;
17347;SDS011;8791;50.876;4.342;2022-12-07T07:49:32;22.73;;;11.57;;
17347;SDS011;8791;50.876;4.342;2022-12-07T07:51:59;39.47;;;25.43;;
17347;SDS011;8791;50.876;4.342;2022-12-07T07:54:26;20.63;;;13.47;;
17347;SDS011;8791;50.876;4.342;2022-12-07T07:56:53;22.33;;;11.80;;
17347;SDS011;8791;50.876;4.342;2022-12-07T07:59:22;21.97;;;11.70;;
17347;SDS011;8791;50.876;4.342;2022-12-07T08:01:49;24.67;;;12.27;;
17347;SDS011;8791;50.876;4.342;2022-12-07T08:04:16;18.90;;;12.33;;
17347;SDS011;8791;50.876;4.342;2022-12-07T08:06:43;24.33;;;12.37;;
17347;SDS011;8791;50.876;4.342;2022-12-07T08:09:10;19.43;;;12.60;;
17347;SDS011;8791;50.876;4.342;2022-12-07T08:11:36;31.77;;;12.83;;
17347;SDS011;8791;50.876;4.342;2022-12-07T08:14:03;21.17;;;12.40;;
17347;SDS011;8791;50.876;4.342;2022-12-07T08:16:31;30.70;;;13.20;;
17347;SDS011;8791;50.876;4.342;2022-12-07T08:18:58;30.10;;;12.87;;
17347;SDS011;8791;50.876;4.342;2022-12-07T08:21:25;20.27;;;11.20;;
17347;SDS011;8791;50.876;4.342;2022-12-07T08:23:52;19.67;;;11.47;;
17347;SDS011;8791;50.876;4.342;2022-12-07T08:26:18;22.20;;;12.00;;
17347;SDS011;8791;50.876;4.342;2022-12-07T08:28:45;20.43;;;13.27;;
17347;SDS011;8791;50.876;4.342;2022-12-07T08:31:13;22.43;;;14.27;;
17347;SDS011;8791;50.876;4.342;2022-12-07T08:33:43;26.23;;;15.33;;
17347;SDS011;8791;50.876;4.342;2022-12-07T08:36:11;26.30;;;14.60;;
17347;SDS011;8791;50.876;4.342;2022-12-07T08:38:39;29.23;;;14.87;;
17347;SDS011;8791;50.876;4.342;2022-12-07T08:41:07;34.37;;;16.00;;
17347;SDS011;8791;50.876;4.342;2022-12-07T08:43:34;25.20;;;15.03;;
17347;SDS011;8791;50.876;4.342;2022-12-07T08:46:03;25.73;;;13.83;;
17347;SDS011;8791;50.876;4.342;2022-12-07T08:48:35;22.40;;;12.67;;
17347;SDS011;8791;50.876;4.342;2022-12-07T08:51:06;27.40;;;13.60;;
17347;SDS011;8791;50.876;4.342;2022-12-07T08:53:33;24.07;;;14.97;;
17347;SDS011;8791;50.876;4.342;2022-12-07T08:56:01;20.10;;;11.57;;
17347;SDS011;8791;50.876;4.342;2022-12-07T08:58:29;20.50;;;11.00;;
17347;SDS011;8791;50.876;4.342;2022-12-07T09:00:56;20.80;;;12.30;;
17347;SDS011;8791;50.876;4.342;2022-12-07T09:03:23;16.07;;;11.37;;
17347;SDS011;8791;50.876;4.342;2022-12-07T09:05:50;16.50;;;10.07;;
17347;SDS011;8791;50.876;4.342;2022-12-07T09:08:19;27.20;;;11.37;;
17347;SDS011;8791;50.876;4.342;2022-12-07T09:10:47;17.10;;;11.57;;
17347;SDS011;8791;50.876;4.342;2022-12-07T09:13:14;23.03;;;10.37;;
17347;SDS011;8791;50.876;4.342;2022-12-07T09:15:41;19.53;;;10.80;;
17347;SDS011;8791;50.876;4.342;2022-12-07T09:18:07;24.87;;;14.20;;
17347;SDS011;8791;50.876;4.342;2022-12-07T09:20:34;15.77;;;8.83;;
17347;SDS011;8791;50.876;4.342;2022-12-07T09:23:01;19.13;;;9.07;;
17347;SDS011;8791;50.876;4.342;2022-12-07T09:25:29;14.20;;;9.20;;
17347;SDS011;8791;50.876;4.342;2022-12-07T09:27:56;18.53;;;8.70;;
17347;SDS011;8791;50.876;4.342;2022-12-07T09:30:24;15.50;;;7.97;;
17347;SDS011;8791;50.876;4.342;2022-12-07T09:32:52;15.17;;;7.73;;
17347;SDS011;8791;50.876;4.342;2022-12-07T09:35:20;14.83;;;8.63;;
17347;SDS011;8791;50.876;4.342;2022-12-07T09:37:46;11.63;;;7.10;;
17347;SDS011;8791;50.876;4.342;2022-12-07T09:40:13;14.13;;;7.80;;
17347;SDS011;8791;50.876;4.342;2022-12-07T09:42:43;12.83;;;6.90;;
17347;SDS011;8791;50.876;4.342;2022-12-07T09:45:14;12.20;;;7.30;;
17347;SDS011;8791;50.876;4.342;2022-12-07T09:47:42;14.00;;;7.13;;
17347;SDS011;8791;50.876;4.342;2022-12-07T09:50:12;19.03;;;9.23;;
17347;SDS011;8791;50.876;4.342;2022-12-07T09:52:41;10.43;;;7.00;;
17347;SDS011;8791;50.876;4.342;2022-12-07T09:55:09;16.33;;;8.47;;
17347;SDS011;8791;50.876;4.342;2022-12-07T09:57:38;13.47;;;7.90;;
17347;SDS011;8791;50.876;4.342;2022-12-07T10:00:11;16.17;;;8.50;;
17347;SDS011;8791;50.876;4.342;2022-12-07T10:02:40;14.57;;;8.67;;
17347;SDS011;8791;50.876;4.342;2022-12-07T10:05:11;16.93;;;9.10;;
17347;SDS011;8791;50.876;4.342;2022-12-07T10:07:40;15.80;;;8.97;;
17347;SDS011;8791;50.876;4.342;2022-12-07T10:10:13;13.37;;;8.40;;
17347;SDS011;8791;50.876;4.342;2022-12-07T10:12:52;13.87;;;7.63;;
17347;SDS011;8791;50.876;4.342;2022-12-07T10:15:22;12.53;;;7.17;;
17347;SDS011;8791;50.876;4.342;2022-12-07T10:17:50;16.80;;;6.70;;
17347;SDS011;8791;50.876;4.342;2022-12-07T10:20:19;9.67;;;6.57;;
17347;SDS011;8791;50.876;4.342;2022-12-07T10:22:55;11.30;;;5.80;;
17347;SDS011;8791;50.876;4.342;2022-12-07T10:25:28;10.17;;;5.30;;
17347;SDS011;8791;50.876;4.342;2022-12-07T10:27:58;14.43;;;5.37;;
17347;SDS011;8791;50.876;4.342;2022-12-07T10:30:45;9.80;;;6.00;;
17347;SDS011;8791;50.876;4.342;2022-12-07T10:33:18;9.80;;;5.47;;
17347;SDS011;8791;50.876;4.342;2022-12-07T10:35:54;12.53;;;5.90;;
17347;SDS011;8791;50.876;4.342;2022-12-07T10:38:22;19.17;;;11.70;;
17347;SDS011;8791;50.876;4.342;2022-12-07T10:41:02;32.53;;;9.47;;
17347;SDS011;8791;50.876;4.342;2022-12-07T10:43:30;46.47;;;9.97;;
17347;SDS011;8791;50.876;4.342;2022-12-07T10:48:55;59.00;;;15.97;;
17347;SDS011;8791;50.876;4.342;2022-12-07T10:51:28;75.00;;;18.53;;
17347;SDS011;8791;50.876;4.342;2022-12-07T10:54:04;11.77;;;6.30;;
17347;SDS011;8791;50.876;4.342;2022-12-07T10:56:43;14.27;;;6.83;;
17347;SDS011;8791;50.876;4.342;2022-12-07T10:59:32;16.87;;;6.43;;
17347;SDS011;8791;50.876;4.342;2022-12-07T11:02:32;12.73;;;5.20;;
17347;SDS011;8791;50.876;4.342;2022-12-07T11:05:38;7.90;;;4.83;;
17347;SDS011;8791;50.876;4.342;2022-12-07T11:08:11;12.83;;;4.93;;
17347;SDS011;8791;50.876;4.342;2022-12-07T11:10:44;14.60;;;5.83;;
17347;SDS011;8791;50.876;4.342;2022-12-07T11:13:24;9.00;;;5.50;;
17347;SDS011;8791;50.876;4.342;2022-12-07T11:16:02;19.50;;;5.00;;
17347;SDS011;8791;50.876;4.342;2022-12-07T11:18:50;9.13;;;4.50;;
17347;SDS011;8791;50.876;4.342;2022-12-07T11:21:26;11.43;;;5.40;;
17347;SDS011;8791;50.876;4.342;2022-12-07T11:24:03;12.57;;;5.30;;
17347;SDS011;8791;50.876;4.342;2022-12-07T11:26:46;13.97;;;5.70;;
17347;SDS011;8791;50.876;4.342;2022-12-07T11:29:28;12.47;;;5.90;;
17347;SDS011;8791;50.876;4.342;2022-12-07T11:32:11;14.80;;;5.50;;
17347;SDS011;8791;50.876;4.342;2022-12-07T11:34:47;11.43;;;5.93;;
17347;SDS011;8791;50.876;4.342;2022-12-07T11:37:23;10.17;;;5.33;;
17347;SDS011;8791;50.876;4.342;2022-12-07T11:39:55;20.23;;;6.40;;
17347;SDS011;8791;50.876;4.342;2022-12-07T11:42:29;7.77;;;5.97;;
17347;SDS011;8791;50.876;4.342;2022-12-07T11:45:00;8.20;;;5.73;;
17347;SDS011;8791;50.876;4.342;2022-12-07T11:47:36;17.27;;;6.07;;
17347;SDS011;8791;50.876;4.342;2022-12-07T11:50:17;14.07;;;5.60;;
17347;SDS011;8791;50.876;4.342;2022-12-07T11:52:54;9.17;;;5.60;;
17347;SDS011;8791;50.876;4.342;2022-12-07T11:55:26;14.67;;;5.40;;
17347;SDS011;8791;50.876;4.342;2022-12-07T11:58:00;9.20;;;4.83;;
17347;SDS011;8791;50.876;4.342;2022-12-07T12:00:34;8.90;;;4.40;;
17347;SDS011;8791;50.876;4.342;2022-12-07T12:03:03;9.80;;;4.70;;
17347;SDS011;8791;50.876;4.342;2022-12-07T12:05:38;12.57;;;4.00;;
17347;SDS011;8791;50.876;4.342;2022-12-07T12:08:10;8.43;;;3.73;;
17347;SDS011;8791;50.876;4.342;2022-12-07T12:10:42;8.13;;;3.20;;
17347;SDS011;8791;50.876;4.342;2022-12-07T12:13:34;9.40;;;3.30;;
17347;SDS011;8791;50.876;4.342;2022-12-07T12:16:21;10.73;;;3.03;;
17347;SDS011;8791;50.876;4.342;2022-12-07T12:19:11;12.87;;;3.17;;
17347;SDS011;8791;50.876;4.342;2022-12-07T12:21:47;9.93;;;3.40;;
17347;SDS011;8791;50.876;4.342;2022-12-07T12:24:21;10.83;;;3.97;;
17347;SDS011;8791;50.876;4.342;2022-12-07T12:26:51;5.70;;;3.17;;
17347;SDS011;8791;50.876;4.342;2022-12-07T12:29:21;4.63;;;3.07;;
17347;SDS011;8791;50.876;4.342;2022-12-07T12:32:04;8.10;;;3.30;;
17347;SDS011;8791;50.876;4.342;2022-12-07T12:34:57;4.70;;;2.57;;
17347;SDS011;8791;50.876;4.342;2022-12-07T12:37:47;6.57;;;2.70;;
17347;SDS011;8791;50.876;4.342;2022-12-07T12:55:13;3.87;;;2.20;;
17347;SDS011;8791;50.876;4.342;2022-12-07T12:57:46;8.23;;;3.00;;
17347;SDS011;8791;50.876;4.342;2022-12-07T13:00:18;5.37;;;2.50;;
17347;SDS011;8791;50.876;4.342;2022-12-07T13:02:47;8.60;;;3.20;;
17347;SDS011;8791;50.876;4.342;2022-12-07T13:05:17;6.57;;;2.57;;
17347;SDS011;8791;50.876;4.342;2022-12-07T13:07:50;6.17;;;2.73;;
17347;SDS011;8791;50.876;4.342;2022-12-07T13:10:41;7.77;;;2.77;;
17347;SDS011;8791;50.876;4.342;2022-12-07T13:13:29;9.33;;;2.53;;
17347;SDS011;8791;50.876;4.342;2022-12-07T13:25:03;5.93;;;2.27;;
17347;SDS011;8791;50.876;4.342;2022-12-07T13:27:36;5.97;;;2.00;;
17347;SDS011;8791;50.876;4.342;2022-12-07T13:30:09;7.30;;;2.13;;
17347;SDS011;8791;50.876;4.342;2022-12-07T13:32:41;8.80;;;2.20;;
17347;SDS011;8791;50.876;4.342;2022-12-07T13:35:27;7.23;;;2.60;;
17347;SDS011;8791;50.876;4.342;2022-12-07T13:37:55;7.40;;;2.13;;
17347;SDS011;8791;50.876;4.342;2022-12-07T13:40:22;6.90;;;3.00;;
17347;SDS011;8791;50.876;4.342;2022-12-07T13:42:58;5.57;;;2.30;;
17347;SDS011;8791;50.876;4.342;2022-12-07T13:45:26;5.90;;;2.37;;
17347;SDS011;8791;50.876;4.342;2022-12-07T13:48:09;7.40;;;2.07;;
17347;SDS011;8791;50.876;4.342;2022-12-07T13:50:41;11.40;;;3.33;;
17347;SDS011;8791;50.876;4.342;2022-12-07T13:53:11;7.00;;;2.90;;
17347;SDS011;8791;50.876;4.342;2022-12-07T13:55:44;6.13;;;2.97;;
17347;SDS011;8791;50.876;4.342;2022-12-07T13:58:13;10.27;;;3.63;;
17347;SDS011;8791;50.876;4.342;2022-12-07T14:00:40;8.77;;;3.30;;
17347;SDS011;8791;50.876;4.342;2022-12-07T14:06:03;6.53;;;2.53;;
17347;SDS011;8791;50.876;4.342;2022-12-07T14:08:42;8.30;;;2.60;;
17347;SDS011;8791;50.876;4.342;2022-12-07T14:11:13;6.13;;;2.23;;
17347;SDS011;8791;50.876;4.342;2022-12-07T14:13:50;6.47;;;1.90;;
17347;SDS011;8791;50.876;4.342;2022-12-07T14:16:24;9.90;;;2.07;;
17347;SDS011;8791;50.876;4.342;2022-12-07T14:18:54;4.73;;;1.70;;
17347;SDS011;8791;50.876;4.342;2022-12-07T14:21:22;4.93;;;2.00;;
17347;SDS011;8791;50.876;4.342;2022-12-07T14:24:04;3.40;;;1.63;;
17347;SDS011;8791;50.876;4.342;2022-12-07T14:26:41;9.53;;;2.90;;
17347;SDS011;8791;50.876;4.342;2022-12-07T14:29:20;6.40;;;3.07;;
17347;SDS011;8791;50.876;4.342;2022-12-07T14:31:49;7.77;;;3.30;;
17347;SDS011;8791;50.876;4.342;2022-12-07T14:34:19;7.73;;;2.67;;
17347;SDS011;8791;50.876;4.342;2022-12-07T14:36:46;7.30;;;4.10;;
17347;SDS011;8791;50.876;4.342;2022-12-07T14:39:13;5.73;;;2.60;;
17347;SDS011;8791;50.876;4.342;2022-12-07T14:41:40;9.67;;;2.70;;
17347;SDS011;8791;50.876;4.342;2022-12-07T14:44:21;6.83;;;2.77;;
17347;SDS011;8791;50.876;4.342;2022-12-07T14:46:49;6.17;;;2.77;;
17347;SDS011;8791;50.876;4.342;2022-12-07T14:49:17;4.77;;;2.67;;
17347;SDS011;8791;50.876;4.342;2022-12-07T14:51:44;2.83;;;1.70;;
17347;SDS011;8791;50.876;4.342;2022-12-07T14:54:13;3.37;;;1.80;;
17347;SDS011;8791;50.876;4.342;2022-12-07T14:56:43;3.10;;;2.00;;
17347;SDS011;8791;50.876;4.342;2022-12-07T14:59:10;7.77;;;1.80;;
17347;SDS011;8791;50.876;4.342;2022-12-07T15:01:39;9.13;;;2.00;;
17347;SDS011;8791;50.876;4.342;2022-12-07T15:04:06;4.63;;;2.10;;
17347;SDS011;8791;50.876;4.342;2022-12-07T15:06:32;10.67;;;1.83;;
17347;SDS011;8791;50.876;4.342;2022-12-07T15:08:59;2.70;;;1.87;;
17347;SDS011;8791;50.876;4.342;2022-12-07T15:11:26;3.47;;;2.17;;
17347;SDS011;8791;50.876;4.342;2022-12-07T15:13:53;4.57;;;2.53;;
17347;SDS011;8791;50.876;4.342;2022-12-07T15:16:37;4.50;;;2.33;;
17347;SDS011;8791;50.876;4.342;2022-12-07T15:19:08;9.63;;;3.17;;
17347;SDS011;8791;50.876;4.342;2022-12-07T15:21:39;7.00;;;2.57;;
17347;SDS011;8791;50.876;4.342;2022-12-07T15:24:06;7.63;;;2.40;;
17347;SDS011;8791;50.876;4.342;2022-12-07T15:26:34;4.57;;;2.27;;
17347;SDS011;8791;50.876;4.342;2022-12-07T15:29:00;5.83;;;3.20;;
17347;SDS011;8791;50.876;4.342;2022-12-07T15:31:27;5.63;;;2.87;;
17347;SDS011;8791;50.876;4.342;2022-12-07T15:33:55;6.20;;;2.97;;